NCAR-RAP Real-Time Weather Data

Output produced by METARs form (17 September 2019  16:13 UTC)
found at http://weather.rap.ucar.edu/surface/
 
KBTV 171554Z 32012KT 10SM SCT026 17/09 A3022 RMK AO2 SLP233 T01720089
KBTV 171454Z 35008KT 10SM SCT023 16/09 A3022 RMK AO2 SLP233 T01610089 51008
KBTV 171354Z 36007KT 10SM FEW030 16/09 A3021 RMK AO2 SLP232 T01560089
KBTV 171254Z 00000KT 10SM CLR 13/09 A3020 RMK AO2 SLP229 T01280089
KBTV 171154Z 08003KT 10SM CLR 09/07 A3019 RMK AO2 SLP225 T00890067 10094 20072 53018
KBTV 171054Z 00000KT 10SM CLR 08/06 A3017 RMK AO2 SLP219 T00780061
KBTV 170954Z 00000KT 10SM CLR 08/06 A3015 RMK AO2 SLP212 T00780061
KBTV 170854Z AUTO 00000KT 10SM CLR 08/07 A3014 RMK AO2 SLP206 T00830067 53004
KBTV 170754Z AUTO 00000KT 10SM CLR 08/07 A3013 RMK AO2 SLP205 T00830072
KBTV 170654Z AUTO 00000KT 10SM CLR 09/07 A3013 RMK AO2 SLP203 T00890072
KBTV 170554Z AUTO 00000KT 10SM CLR 09/07 A3013 RMK AO2 SLP202 T00940072 10172 20094 53010
KBTV 170454Z AUTO 00000KT 10SM CLR 10/08 A3011 RMK AO2 SLP197 T01000078 402110100
KBTV 170354Z 00000KT 10SM CLR 11/08 A3010 RMK AO2 SLP193 LAST T01060083
KBTV 170254Z 00000KT 10SM CLR 11/09 A3009 RMK AO2 SLP192 T01110089 51007
KBTV 170054Z 00000KT 10SM CLR 13/09 A3008 RMK AO2 SLP188 T01330094
KBTV 162354Z 32003KT 10SM CLR 17/08 A3007 RMK AO2 SLP185 T01670083 10211 20167 53007
KBTV 162254Z 33003KT 10SM FEW060 18/08 A3007 RMK AO2 SLP183 T01830078
KBTV 162154Z 35008KT 10SM FEW060 20/07 A3006 RMK AO2 SLP178 T02000067
KBTV 162054Z 35011KT 10SM FEW060 21/07 A3005 RMK AO2 SLP177 T02060067 55006
KBTV 161954Z 01013KT 10SM FEW065 SCT250 21/06 A3005 RMK AO2 SLP176 T02110061
KBTV 161854Z 34010KT 10SM FEW065 21/06 A3006 RMK AO2 SLP179 T02110056